Etusivu
METAR-TAF:

METAR-TAF

Lentoasemat :

Jakutskin lentoasema

Jakutsk, Venäjä

Leveyspiiri: 62-01N, Pituuspiiri: 129-43E, korkeus merenpinnasta: 103 m

Tämänhetkinen sää

Tämä raportti tehtiin 36 minuuttia sitten, kello 15.00 UTC
Tuuli 2 kn luoteesta
Lämpötila -26°C
Kosteus 83%
Ilmanpaine 1017 hPa
Näkyvyys 10 km tai enemmän
heikkoa lumisadetta

METAR: UEEE 131500Z 32001MPS 9999 -SN NSC M26/M28 Q1017 R23L/490144 NOSIG RMK QFE754

Aika: 00:36 (15:36 UTC)

Sääennuste

Tämä raportti tehtiin 1 tunti ja 36 minuuttia sitten, kello 14.00 UTC
Ennuste voimassa 13. päivästä klo 15 UTC - 14. päivään klo 21 UTC
Tuuli 6 kn pohjoisen/luoteesta
Näkyvyys: 5000 m
Hajonneita pilviä 2000 ft:n korkeudessa
Pilvistä 7000 ft:n korkeudessa
heikkoa lumisadetta
Ajoittain
13. päivästä klo 15 UTC - 14. päivään klo 03 UTC
Näkyvyys: 1000 m
400 ft:n korkeudessa
lumisadetta

TAF: UEEE 131400Z 1315/1421 34003MPS 5000 -SN BKN020 OVC070 TEMPO 1315/1403 1000 SN VV004

Säähavainnot ja -ennusteet yli 4000 lentoasemalta (METAR- ja TAF-raportit).

Käytössä olevat sääasemat on merkitty karttaan keltaisilla ja punaisilla pisteillä.

Aseta hiiri pisteen päälle nähdäksesi sääaseman nimen.

Klikkaa sitten nähdäksesi säähavainnot ja -ennusteet.

Kartan vaihtaminen: klikkaa mustalla rastilla varustettuja vihreitä pisteitä, niin voit zoomata sisään; viivalla varustettua vihreää pistettä, niin voit zoomata ulos tai vihreitä nuolia, niin pääset viereisille kartoille.


METAR-TAF: